sensor_id;sensor_type;location;lat;lon;timestamp;P1;durP1;ratioP1;P2;durP2;ratioP2
49852;SDS011;35751;48.072;11.688;2022-10-31T00:00:46;10.43;;;4.82;;
49852;SDS011;35751;48.072;11.688;2022-10-31T00:03:11;11.27;;;4.55;;
49852;SDS011;35751;48.072;11.688;2022-10-31T00:05:41;9.18;;;4.95;;
49852;SDS011;35751;48.072;11.688;2022-10-31T00:08:10;8.63;;;4.78;;
49852;SDS011;35751;48.072;11.688;2022-10-31T00:10:42;6.75;;;4.07;;
49852;SDS011;35751;48.072;11.688;2022-10-31T00:13:09;7.05;;;3.80;;
49852;SDS011;35751;48.072;11.688;2022-10-31T00:15:35;10.32;;;4.68;;
49852;SDS011;35751;48.072;11.688;2022-10-31T00:18:04;12.68;;;4.35;;
49852;SDS011;35751;48.072;11.688;2022-10-31T00:20:31;10.20;;;4.47;;
49852;SDS011;35751;48.072;11.688;2022-10-31T00:23:00;12.95;;;5.35;;
49852;SDS011;35751;48.072;11.688;2022-10-31T00:25:26;10.10;;;4.45;;
49852;SDS011;35751;48.072;11.688;2022-10-31T00:27:52;8.45;;;4.45;;
49852;SDS011;35751;48.072;11.688;2022-10-31T00:30:18;9.80;;;4.47;;
49852;SDS011;35751;48.072;11.688;2022-10-31T00:32:43;10.10;;;4.53;;
49852;SDS011;35751;48.072;11.688;2022-10-31T00:35:09;12.15;;;4.65;;
49852;SDS011;35751;48.072;11.688;2022-10-31T00:37:34;8.70;;;4.80;;
49852;SDS011;35751;48.072;11.688;2022-10-31T00:39:59;8.05;;;4.55;;
49852;SDS011;35751;48.072;11.688;2022-10-31T00:42:25;10.65;;;5.28;;
49852;SDS011;35751;48.072;11.688;2022-10-31T00:44:50;10.90;;;5.15;;
49852;SDS011;35751;48.072;11.688;2022-10-31T00:47:16;6.57;;;4.38;;
49852;SDS011;35751;48.072;11.688;2022-10-31T00:49:41;11.65;;;5.00;;
49852;SDS011;35751;48.072;11.688;2022-10-31T00:52:07;8.02;;;3.78;;
49852;SDS011;35751;48.072;11.688;2022-10-31T00:54:32;11.70;;;5.45;;
49852;SDS011;35751;48.072;11.688;2022-10-31T00:56:58;12.10;;;4.90;;
49852;SDS011;35751;48.072;11.688;2022-10-31T00:59:23;9.93;;;5.35;;
49852;SDS011;35751;48.072;11.688;2022-10-31T01:01:49;8.63;;;4.65;;
49852;SDS011;35751;48.072;11.688;2022-10-31T01:04:14;11.90;;;4.30;;
49852;SDS011;35751;48.072;11.688;2022-10-31T01:06:40;9.35;;;4.53;;
49852;SDS011;35751;48.072;11.688;2022-10-31T01:09:05;9.75;;;4.97;;
49852;SDS011;35751;48.072;11.688;2022-10-31T01:11:31;11.90;;;4.30;;
49852;SDS011;35751;48.072;11.688;2022-10-31T01:13:56;9.25;;;4.63;;
49852;SDS011;35751;48.072;11.688;2022-10-31T01:16:23;8.68;;;4.30;;
49852;SDS011;35751;48.072;11.688;2022-10-31T01:18:50;7.63;;;3.80;;
49852;SDS011;35751;48.072;11.688;2022-10-31T01:21:20;8.35;;;4.45;;
49852;SDS011;35751;48.072;11.688;2022-10-31T01:23:46;8.25;;;4.03;;
49852;SDS011;35751;48.072;11.688;2022-10-31T01:26:16;6.63;;;3.60;;
49852;SDS011;35751;48.072;11.688;2022-10-31T01:31:17;5.05;;;3.75;;
49852;SDS011;35751;48.072;11.688;2022-10-31T01:33:44;6.85;;;3.53;;
49852;SDS011;35751;48.072;11.688;2022-10-31T01:41:12;7.28;;;3.20;;
49852;SDS011;35751;48.072;11.688;2022-10-31T01:43:44;6.15;;;3.20;;
49852;SDS011;35751;48.072;11.688;2022-10-31T01:46:27;6.25;;;3.40;;
49852;SDS011;35751;48.072;11.688;2022-10-31T01:48:54;7.95;;;3.30;;
49852;SDS011;35751;48.072;11.688;2022-10-31T01:51:22;5.82;;;3.22;;
49852;SDS011;35751;48.072;11.688;2022-10-31T01:53:51;6.22;;;3.40;;
49852;SDS011;35751;48.072;11.688;2022-10-31T01:56:20;8.20;;;3.83;;
49852;SDS011;35751;48.072;11.688;2022-10-31T01:58:47;7.95;;;3.05;;
49852;SDS011;35751;48.072;11.688;2022-10-31T02:01:12;7.60;;;4.00;;
49852;SDS011;35751;48.072;11.688;2022-10-31T02:03:40;9.23;;;3.35;;
49852;SDS011;35751;48.072;11.688;2022-10-31T02:06:06;6.35;;;2.55;;
49852;SDS011;35751;48.072;11.688;2022-10-31T02:08:36;7.63;;;3.58;;
49852;SDS011;35751;48.072;11.688;2022-10-31T02:11:02;7.75;;;3.30;;
49852;SDS011;35751;48.072;11.688;2022-10-31T02:13:28;5.38;;;3.65;;
49852;SDS011;35751;48.072;11.688;2022-10-31T02:15:55;5.53;;;3.30;;
49852;SDS011;35751;48.072;11.688;2022-10-31T02:18:22;8.32;;;3.92;;
49852;SDS011;35751;48.072;11.688;2022-10-31T02:31:58;6.18;;;3.30;;
49852;SDS011;35751;48.072;11.688;2022-10-31T02:37:17;7.55;;;3.38;;
49852;SDS011;35751;48.072;11.688;2022-10-31T02:40:10;6.90;;;3.08;;
49852;SDS011;35751;48.072;11.688;2022-10-31T02:42:47;5.47;;;3.13;;
49852;SDS011;35751;48.072;11.688;2022-10-31T02:45:21;7.65;;;3.10;;
49852;SDS011;35751;48.072;11.688;2022-10-31T02:47:53;4.00;;;2.75;;
49852;SDS011;35751;48.072;11.688;2022-10-31T02:50:24;5.05;;;2.78;;
49852;SDS011;35751;48.072;11.688;2022-10-31T02:52:53;6.13;;;3.40;;
49852;SDS011;35751;48.072;11.688;2022-10-31T02:57:47;4.03;;;2.53;;
49852;SDS011;35751;48.072;11.688;2022-10-31T03:00:14;8.07;;;3.13;;
49852;SDS011;35751;48.072;11.688;2022-10-31T03:11:28;6.38;;;3.40;;
49852;SDS011;35751;48.072;11.688;2022-10-31T03:14:12;5.60;;;3.03;;
49852;SDS011;35751;48.072;11.688;2022-10-31T03:16:46;5.20;;;3.28;;
49852;SDS011;35751;48.072;11.688;2022-10-31T03:19:22;4.93;;;2.83;;
49852;SDS011;35751;48.072;11.688;2022-10-31T03:21:53;6.03;;;4.35;;
49852;SDS011;35751;48.072;11.688;2022-10-31T03:24:21;9.00;;;3.75;;
49852;SDS011;35751;48.072;11.688;2022-10-31T03:26:49;7.18;;;3.92;;
49852;SDS011;35751;48.072;11.688;2022-10-31T03:29:21;6.90;;;3.20;;
49852;SDS011;35751;48.072;11.688;2022-10-31T03:34:17;9.07;;;4.72;;
49852;SDS011;35751;48.072;11.688;2022-10-31T03:36:44;5.88;;;3.33;;
49852;SDS011;35751;48.072;11.688;2022-10-31T03:39:13;8.07;;;3.13;;
49852;SDS011;35751;48.072;11.688;2022-10-31T03:41:45;5.82;;;3.15;;
49852;SDS011;35751;48.072;11.688;2022-10-31T03:44:15;8.48;;;3.75;;
49852;SDS011;35751;48.072;11.688;2022-10-31T03:46:42;6.15;;;3.03;;
49852;SDS011;35751;48.072;11.688;2022-10-31T03:49:09;9.68;;;3.33;;
49852;SDS011;35751;48.072;11.688;2022-10-31T03:51:37;7.32;;;2.78;;
49852;SDS011;35751;48.072;11.688;2022-10-31T03:54:24;7.15;;;3.70;;
49852;SDS011;35751;48.072;11.688;2022-10-31T03:59:41;6.05;;;3.28;;
49852;SDS011;35751;48.072;11.688;2022-10-31T04:02:10;6.20;;;3.65;;
49852;SDS011;35751;48.072;11.688;2022-10-31T04:04:38;6.90;;;3.35;;
49852;SDS011;35751;48.072;11.688;2022-10-31T04:07:04;7.30;;;3.00;;
49852;SDS011;35751;48.072;11.688;2022-10-31T04:09:31;6.93;;;2.97;;
49852;SDS011;35751;48.072;11.688;2022-10-31T04:11:59;5.47;;;3.20;;
49852;SDS011;35751;48.072;11.688;2022-10-31T04:14:26;11.15;;;3.95;;
49852;SDS011;35751;48.072;11.688;2022-10-31T04:16:52;7.75;;;2.80;;
49852;SDS011;35751;48.072;11.688;2022-10-31T04:19:18;5.57;;;3.30;;
49852;SDS011;35751;48.072;11.688;2022-10-31T04:21:43;8.15;;;2.70;;
49852;SDS011;35751;48.072;11.688;2022-10-31T04:24:09;6.00;;;3.35;;
49852;SDS011;35751;48.072;11.688;2022-10-31T04:26:35;5.90;;;2.67;;
49852;SDS011;35751;48.072;11.688;2022-10-31T04:29:01;4.65;;;3.13;;
49852;SDS011;35751;48.072;11.688;2022-10-31T04:31:27;4.63;;;2.65;;
49852;SDS011;35751;48.072;11.688;2022-10-31T04:33:52;10.15;;;3.58;;
49852;SDS011;35751;48.072;11.688;2022-10-31T04:36:18;6.43;;;2.83;;
49852;SDS011;35751;48.072;11.688;2022-10-31T04:38:44;6.82;;;3.00;;
49852;SDS011;35751;48.072;11.688;2022-10-31T04:41:09;6.75;;;3.10;;
49852;SDS011;35751;48.072;11.688;2022-10-31T04:43:35;7.22;;;3.47;;
49852;SDS011;35751;48.072;11.688;2022-10-31T04:46:01;10.77;;;3.35;;
49852;SDS011;35751;48.072;11.688;2022-10-31T04:48:27;8.77;;;3.25;;
49852;SDS011;35751;48.072;11.688;2022-10-31T04:50:52;6.82;;;4.07;;
49852;SDS011;35751;48.072;11.688;2022-10-31T04:53:23;6.55;;;3.20;;
49852;SDS011;35751;48.072;11.688;2022-10-31T04:55:52;6.72;;;3.28;;
49852;SDS011;35751;48.072;11.688;2022-10-31T04:58:17;5.78;;;3.13;;
49852;SDS011;35751;48.072;11.688;2022-10-31T05:00:43;9.48;;;4.55;;
49852;SDS011;35751;48.072;11.688;2022-10-31T05:03:09;5.60;;;3.33;;
49852;SDS011;35751;48.072;11.688;2022-10-31T05:05:34;7.47;;;3.00;;
49852;SDS011;35751;48.072;11.688;2022-10-31T05:08:00;4.53;;;3.55;;
49852;SDS011;35751;48.072;11.688;2022-10-31T05:10:26;8.63;;;3.38;;
49852;SDS011;35751;48.072;11.688;2022-10-31T05:12:54;9.30;;;3.13;;
49852;SDS011;35751;48.072;11.688;2022-10-31T05:15:21;6.72;;;3.08;;
49852;SDS011;35751;48.072;11.688;2022-10-31T05:17:48;8.60;;;3.95;;
49852;SDS011;35751;48.072;11.688;2022-10-31T05:20:14;7.35;;;3.55;;
49852;SDS011;35751;48.072;11.688;2022-10-31T05:22:44;7.45;;;3.97;;
49852;SDS011;35751;48.072;11.688;2022-10-31T05:25:11;11.38;;;3.97;;
49852;SDS011;35751;48.072;11.688;2022-10-31T05:27:47;9.52;;;5.45;;
49852;SDS011;35751;48.072;11.688;2022-10-31T05:30:15;13.80;;;4.47;;
49852;SDS011;35751;48.072;11.688;2022-10-31T05:32:43;6.40;;;3.90;;
49852;SDS011;35751;48.072;11.688;2022-10-31T05:35:14;7.97;;;4.40;;
49852;SDS011;35751;48.072;11.688;2022-10-31T05:37:41;6.05;;;3.35;;
49852;SDS011;35751;48.072;11.688;2022-10-31T05:40:07;5.43;;;3.60;;
49852;SDS011;35751;48.072;11.688;2022-10-31T05:42:34;8.48;;;3.95;;
49852;SDS011;35751;48.072;11.688;2022-10-31T05:45:00;7.32;;;3.60;;
49852;SDS011;35751;48.072;11.688;2022-10-31T05:47:26;5.78;;;2.83;;
49852;SDS011;35751;48.072;11.688;2022-10-31T05:49:52;10.75;;;4.07;;
49852;SDS011;35751;48.072;11.688;2022-10-31T05:52:18;8.50;;;4.15;;
49852;SDS011;35751;48.072;11.688;2022-10-31T05:54:44;20.20;;;5.20;;
49852;SDS011;35751;48.072;11.688;2022-10-31T05:57:10;10.18;;;3.53;;
49852;SDS011;35751;48.072;11.688;2022-10-31T05:59:36;9.18;;;4.05;;
49852;SDS011;35751;48.072;11.688;2022-10-31T06:02:02;5.47;;;2.90;;
49852;SDS011;35751;48.072;11.688;2022-10-31T06:04:28;8.77;;;4.07;;
49852;SDS011;35751;48.072;11.688;2022-10-31T06:06:56;9.93;;;3.63;;
49852;SDS011;35751;48.072;11.688;2022-10-31T06:09:22;4.82;;;3.00;;
49852;SDS011;35751;48.072;11.688;2022-10-31T06:11:48;9.02;;;3.67;;
49852;SDS011;35751;48.072;11.688;2022-10-31T06:14:14;8.82;;;3.97;;
49852;SDS011;35751;48.072;11.688;2022-10-31T06:16:39;5.45;;;3.45;;
49852;SDS011;35751;48.072;11.688;2022-10-31T06:19:08;11.52;;;3.40;;
49852;SDS011;35751;48.072;11.688;2022-10-31T06:21:37;5.00;;;2.95;;
49852;SDS011;35751;48.072;11.688;2022-10-31T06:24:03;4.35;;;3.17;;
49852;SDS011;35751;48.072;11.688;2022-10-31T06:26:32;6.32;;;3.42;;
49852;SDS011;35751;48.072;11.688;2022-10-31T06:28:58;9.07;;;3.97;;
49852;SDS011;35751;48.072;11.688;2022-10-31T06:31:24;9.63;;;4.35;;
49852;SDS011;35751;48.072;11.688;2022-10-31T06:33:50;11.38;;;4.60;;
49852;SDS011;35751;48.072;11.688;2022-10-31T06:36:16;6.05;;;3.88;;
49852;SDS011;35751;48.072;11.688;2022-10-31T06:38:42;7.63;;;4.18;;
49852;SDS011;35751;48.072;11.688;2022-10-31T06:41:08;8.30;;;3.67;;
49852;SDS011;35751;48.072;11.688;2022-10-31T06:43:34;14.02;;;4.70;;
49852;SDS011;35751;48.072;11.688;2022-10-31T06:46:04;11.65;;;4.50;;
49852;SDS011;35751;48.072;11.688;2022-10-31T06:48:30;10.05;;;4.47;;
49852;SDS011;35751;48.072;11.688;2022-10-31T06:50:59;8.20;;;3.38;;
49852;SDS011;35751;48.072;11.688;2022-10-31T06:53:26;8.95;;;4.13;;
49852;SDS011;35751;48.072;11.688;2022-10-31T06:55:55;9.80;;;3.88;;
49852;SDS011;35751;48.072;11.688;2022-10-31T06:58:22;4.57;;;3.30;;
49852;SDS011;35751;48.072;11.688;2022-10-31T07:00:48;7.93;;;4.30;;
49852;SDS011;35751;48.072;11.688;2022-10-31T07:03:14;8.80;;;4.45;;
49852;SDS011;35751;48.072;11.688;2022-10-31T07:05:41;7.82;;;3.30;;
49852;SDS011;35751;48.072;11.688;2022-10-31T07:08:07;7.82;;;3.97;;
49852;SDS011;35751;48.072;11.688;2022-10-31T07:10:35;7.53;;;3.42;;
49852;SDS011;35751;48.072;11.688;2022-10-31T07:13:05;7.20;;;3.63;;
49852;SDS011;35751;48.072;11.688;2022-10-31T07:15:35;7.03;;;4.07;;
49852;SDS011;35751;48.072;11.688;2022-10-31T07:18:02;5.90;;;3.47;;
49852;SDS011;35751;48.072;11.688;2022-10-31T07:20:29;7.72;;;3.97;;
49852;SDS011;35751;48.072;11.688;2022-10-31T07:22:55;11.10;;;3.72;;
49852;SDS011;35751;48.072;11.688;2022-10-31T07:25:21;9.23;;;3.67;;
49852;SDS011;35751;48.072;11.688;2022-10-31T07:27:47;9.90;;;3.47;;
49852;SDS011;35751;48.072;11.688;2022-10-31T07:30:13;8.32;;;3.85;;
49852;SDS011;35751;48.072;11.688;2022-10-31T07:32:39;5.38;;;3.25;;
49852;SDS011;35751;48.072;11.688;2022-10-31T07:35:06;7.43;;;3.10;;
49852;SDS011;35751;48.072;11.688;2022-10-31T07:37:32;5.03;;;3.28;;
49852;SDS011;35751;48.072;11.688;2022-10-31T07:39:59;10.93;;;3.55;;
49852;SDS011;35751;48.072;11.688;2022-10-31T07:42:24;9.18;;;3.28;;
49852;SDS011;35751;48.072;11.688;2022-10-31T07:44:50;5.43;;;3.05;;
49852;SDS011;35751;48.072;11.688;2022-10-31T07:47:15;6.68;;;3.45;;
49852;SDS011;35751;48.072;11.688;2022-10-31T07:49:41;9.27;;;2.78;;
49852;SDS011;35751;48.072;11.688;2022-10-31T07:52:06;6.55;;;3.40;;
49852;SDS011;35751;48.072;11.688;2022-10-31T07:54:33;7.20;;;3.90;;
49852;SDS011;35751;48.072;11.688;2022-10-31T07:56:58;7.95;;;3.45;;
49852;SDS011;35751;48.072;11.688;2022-10-31T07:59:24;6.75;;;3.50;;
49852;SDS011;35751;48.072;11.688;2022-10-31T08:01:50;8.43;;;3.25;;
49852;SDS011;35751;48.072;11.688;2022-10-31T08:04:17;8.73;;;2.80;;
49852;SDS011;35751;48.072;11.688;2022-10-31T08:06:44;7.30;;;3.10;;
49852;SDS011;35751;48.072;11.688;2022-10-31T08:09:09;9.52;;;3.08;;
49852;SDS011;35751;48.072;11.688;2022-10-31T08:11:35;6.57;;;2.63;;
49852;SDS011;35751;48.072;11.688;2022-10-31T08:14:01;7.60;;;2.60;;
49852;SDS011;35751;48.072;11.688;2022-10-31T08:16:26;8.43;;;2.83;;
49852;SDS011;35751;48.072;11.688;2022-10-31T08:18:52;6.22;;;2.28;;
49852;SDS011;35751;48.072;11.688;2022-10-31T08:21:19;3.70;;;2.70;;
49852;SDS011;35751;48.072;11.688;2022-10-31T08:23:44;7.28;;;2.92;;
49852;SDS011;35751;48.072;11.688;2022-10-31T08:26:10;9.15;;;3.60;;
49852;SDS011;35751;48.072;11.688;2022-10-31T08:28:35;5.78;;;3.13;;
49852;SDS011;35751;48.072;11.688;2022-10-31T08:31:01;8.07;;;2.92;;
49852;SDS011;35751;48.072;11.688;2022-10-31T08:33:26;4.68;;;3.55;;
49852;SDS011;35751;48.072;11.688;2022-10-31T08:35:52;6.90;;;3.15;;
49852;SDS011;35751;48.072;11.688;2022-10-31T08:38:17;8.13;;;3.95;;
49852;SDS011;35751;48.072;11.688;2022-10-31T08:40:43;6.88;;;3.55;;
49852;SDS011;35751;48.072;11.688;2022-10-31T08:43:14;9.48;;;3.78;;
49852;SDS011;35751;48.072;11.688;2022-10-31T08:45:40;10.23;;;4.43;;
49852;SDS011;35751;48.072;11.688;2022-10-31T08:48:09;11.75;;;4.90;;
49852;SDS011;35751;48.072;11.688;2022-10-31T08:50:36;11.88;;;4.70;;
49852;SDS011;35751;48.072;11.688;2022-10-31T08:53:02;11.15;;;4.47;;
49852;SDS011;35751;48.072;11.688;2022-10-31T08:55:29;8.30;;;4.63;;
49852;SDS011;35751;48.072;11.688;2022-10-31T08:57:56;9.52;;;3.95;;
49852;SDS011;35751;48.072;11.688;2022-10-31T09:00:21;8.32;;;3.70;;
49852;SDS011;35751;48.072;11.688;2022-10-31T09:02:47;6.93;;;4.55;;
49852;SDS011;35751;48.072;11.688;2022-10-31T09:05:12;12.30;;;5.28;;
49852;SDS011;35751;48.072;11.688;2022-10-31T09:07:38;10.65;;;5.75;;
49852;SDS011;35751;48.072;11.688;2022-10-31T09:10:04;10.38;;;4.35;;
49852;SDS011;35751;48.072;11.688;2022-10-31T09:12:31;10.10;;;4.10;;
49852;SDS011;35751;48.072;11.688;2022-10-31T09:14:57;7.63;;;3.67;;
49852;SDS011;35751;48.072;11.688;2022-10-31T09:17:26;7.93;;;3.67;;
49852;SDS011;35751;48.072;11.688;2022-10-31T09:19:52;12.02;;;3.63;;
49852;SDS011;35751;48.072;11.688;2022-10-31T09:22:18;7.40;;;4.03;;
49852;SDS011;35751;48.072;11.688;2022-10-31T09:24:43;8.60;;;3.60;;
49852;SDS011;35751;48.072;11.688;2022-10-31T09:27:09;10.65;;;5.22;;
49852;SDS011;35751;48.072;11.688;2022-10-31T09:29:35;13.15;;;5.45;;
49852;SDS011;35751;48.072;11.688;2022-10-31T09:32:00;5.03;;;2.80;;
49852;SDS011;35751;48.072;11.688;2022-10-31T09:34:26;10.75;;;3.63;;
49852;SDS011;35751;48.072;11.688;2022-10-31T09:36:52;8.27;;;3.00;;
49852;SDS011;35751;48.072;11.688;2022-10-31T09:39:18;6.18;;;3.35;;
49852;SDS011;35751;48.072;11.688;2022-10-31T09:41:56;6.97;;;3.35;;
49852;SDS011;35751;48.072;11.688;2022-10-31T09:44:40;10.73;;;2.78;;
49852;SDS011;35751;48.072;11.688;2022-10-31T09:52:32;5.10;;;2.20;;
49852;SDS011;35751;48.072;11.688;2022-10-31T09:57:44;4.25;;;2.67;;
49852;SDS011;35751;48.072;11.688;2022-10-31T10:00:17;6.82;;;2.67;;
49852;SDS011;35751;48.072;11.688;2022-10-31T10:02:50;8.30;;;2.78;;
49852;SDS011;35751;48.072;11.688;2022-10-31T10:05:43;8.57;;;2.15;;
49852;SDS011;35751;48.072;11.688;2022-10-31T10:08:34;4.47;;;2.58;;
49852;SDS011;35751;48.072;11.688;2022-10-31T10:29:39;10.13;;;3.20;;
49852;SDS011;35751;48.072;11.688;2022-10-31T10:32:27;12.65;;;3.60;;
49852;SDS011;35751;48.072;11.688;2022-10-31T10:34:56;10.07;;;3.65;;
49852;SDS011;35751;48.072;11.688;2022-10-31T10:37:29;8.88;;;2.92;;
49852;SDS011;35751;48.072;11.688;2022-10-31T10:40:23;11.77;;;3.10;;
49852;SDS011;35751;48.072;11.688;2022-10-31T10:42:55;7.85;;;2.70;;
49852;SDS011;35751;48.072;11.688;2022-10-31T10:45:45;3.63;;;2.75;;
49852;SDS011;35751;48.072;11.688;2022-10-31T10:51:41;6.30;;;2.78;;
49852;SDS011;35751;48.072;11.688;2022-10-31T10:59:48;10.85;;;3.30;;
49852;SDS011;35751;48.072;11.688;2022-10-31T11:02:18;5.68;;;2.63;;
49852;SDS011;35751;48.072;11.688;2022-10-31T11:04:45;9.13;;;2.40;;
49852;SDS011;35751;48.072;11.688;2022-10-31T11:07:14;5.15;;;2.58;;
49852;SDS011;35751;48.072;11.688;2022-10-31T11:09:40;7.03;;;2.42;;
49852;SDS011;35751;48.072;11.688;2022-10-31T11:12:10;7.72;;;3.25;;
49852;SDS011;35751;48.072;11.688;2022-10-31T11:17:19;5.47;;;2.50;;
49852;SDS011;35751;48.072;11.688;2022-10-31T11:22:31;6.93;;;2.83;;
49852;SDS011;35751;48.072;11.688;2022-10-31T11:24:57;9.05;;;3.17;;
49852;SDS011;35751;48.072;11.688;2022-10-31T11:27:23;6.78;;;2.72;;
49852;SDS011;35751;48.072;11.688;2022-10-31T11:29:50;12.65;;;3.53;;
49852;SDS011;35751;48.072;11.688;2022-10-31T11:32:26;6.68;;;4.15;;
49852;SDS011;35751;48.072;11.688;2022-10-31T11:34:53;8.57;;;2.90;;
49852;SDS011;35751;48.072;11.688;2022-10-31T11:37:28;7.50;;;3.88;;
49852;SDS011;35751;48.072;11.688;2022-10-31T11:40:03;8.57;;;3.60;;
49852;SDS011;35751;48.072;11.688;2022-10-31T11:42:40;11.98;;;4.10;;
49852;SDS011;35751;48.072;11.688;2022-10-31T11:45:16;7.43;;;2.67;;
49852;SDS011;35751;48.072;11.688;2022-10-31T11:47:47;6.68;;;2.92;;
49852;SDS011;35751;48.072;11.688;2022-10-31T11:50:25;9.57;;;3.50;;
49852;SDS011;35751;48.072;11.688;2022-10-31T11:52:52;8.15;;;3.25;;
49852;SDS011;35751;48.072;11.688;2022-10-31T11:55:29;5.63;;;3.30;;
49852;SDS011;35751;48.072;11.688;2022-10-31T11:57:56;8.27;;;2.97;;
49852;SDS011;35751;48.072;11.688;2022-10-31T12:00:33;8.82;;;2.53;;
49852;SDS011;35751;48.072;11.688;2022-10-31T12:05:36;7.85;;;3.00;;
49852;SDS011;35751;48.072;11.688;2022-10-31T12:08:03;10.30;;;3.00;;
49852;SDS011;35751;48.072;11.688;2022-10-31T12:10:31;10.77;;;2.88;;
49852;SDS011;35751;48.072;11.688;2022-10-31T12:15:43;10.90;;;3.63;;
49852;SDS011;35751;48.072;11.688;2022-10-31T12:18:28;9.18;;;3.22;;
49852;SDS011;35751;48.072;11.688;2022-10-31T12:26:38;9.00;;;3.70;;
49852;SDS011;35751;48.072;11.688;2022-10-31T12:32:13;7.75;;;3.00;;
49852;SDS011;35751;48.072;11.688;2022-10-31T12:34:57;6.30;;;3.00;;
49852;SDS011;35751;48.072;11.688;2022-10-31T12:37:46;7.82;;;2.90;;
49852;SDS011;35751;48.072;11.688;2022-10-31T12:43:58;9.38;;;3.00;;
49852;SDS011;35751;48.072;11.688;2022-10-31T12:52:07;6.53;;;2.92;;
49852;SDS011;35751;48.072;11.688;2022-10-31T12:54:54;7.00;;;3.08;;
49852;SDS011;35751;48.072;11.688;2022-10-31T12:57:23;9.45;;;3.13;;
49852;SDS011;35751;48.072;11.688;2022-10-31T13:00:21;8.50;;;3.67;;
49852;SDS011;35751;48.072;11.688;2022-10-31T13:05:39;7.20;;;2.80;;
49852;SDS011;35751;48.072;11.688;2022-10-31T13:08:09;16.05;;;3.45;;
49852;SDS011;35751;48.072;11.688;2022-10-31T13:10:40;6.95;;;3.10;;
49852;SDS011;35751;48.072;11.688;2022-10-31T13:13:31;8.55;;;3.53;;
49852;SDS011;35751;48.072;11.688;2022-10-31T13:16:03;8.93;;;3.40;;
49852;SDS011;35751;48.072;11.688;2022-10-31T13:18:51;11.55;;;4.00;;
49852;SDS011;35751;48.072;11.688;2022-10-31T13:21:28;6.38;;;3.45;;
49852;SDS011;35751;48.072;11.688;2022-10-31T13:23:57;12.23;;;3.92;;
49852;SDS011;35751;48.072;11.688;2022-10-31T13:26:40;11.02;;;3.38;;
49852;SDS011;35751;48.072;11.688;2022-10-31T13:32:00;7.63;;;3.70;;
49852;SDS011;35751;48.072;11.688;2022-10-31T13:34:36;8.98;;;3.65;;
49852;SDS011;35751;48.072;11.688;2022-10-31T13:39:45;6.85;;;3.22;;
49852;SDS011;35751;48.072;11.688;2022-10-31T13:44:48;9.73;;;4.05;;
49852;SDS011;35751;48.072;11.688;2022-10-31T13:47:21;8.90;;;4.32;;
49852;SDS011;35751;48.072;11.688;2022-10-31T13:50:18;9.48;;;3.65;;
49852;SDS011;35751;48.072;11.688;2022-10-31T13:52:46;10.32;;;4.20;;
49852;SDS011;35751;48.072;11.688;2022-10-31T13:58:23;9.57;;;4.30;;
49852;SDS011;35751;48.072;11.688;2022-10-31T14:01:02;9.50;;;4.47;;
49852;SDS011;35751;48.072;11.688;2022-10-31T14:03:32;29.60;;;5.40;;
49852;SDS011;35751;48.072;11.688;2022-10-31T14:05:58;11.95;;;4.75;;
49852;SDS011;35751;48.072;11.688;2022-10-31T14:08:24;9.10;;;3.97;;
49852;SDS011;35751;48.072;11.688;2022-10-31T14:10:51;6.10;;;3.90;;
49852;SDS011;35751;48.072;11.688;2022-10-31T14:13:20;8.18;;;3.75;;
49852;SDS011;35751;48.072;11.688;2022-10-31T14:18:30;11.77;;;4.50;;
49852;SDS011;35751;48.072;11.688;2022-10-31T14:21:01;10.27;;;3.83;;
49852;SDS011;35751;48.072;11.688;2022-10-31T14:23:37;7.68;;;4.70;;
49852;SDS011;35751;48.072;11.688;2022-10-31T14:28:53;7.55;;;4.03;;
49852;SDS011;35751;48.072;11.688;2022-10-31T14:31:55;10.10;;;6.22;;
49852;SDS011;35751;48.072;11.688;2022-10-31T14:34:42;11.27;;;4.20;;
49852;SDS011;35751;48.072;11.688;2022-10-31T14:40:11;8.43;;;4.07;;
49852;SDS011;35751;48.072;11.688;2022-10-31T14:45:28;11.45;;;4.25;;
49852;SDS011;35751;48.072;11.688;2022-10-31T14:48:23;7.72;;;4.82;;
49852;SDS011;35751;48.072;11.688;2022-10-31T14:51:13;11.30;;;4.72;;
49852;SDS011;35751;48.072;11.688;2022-10-31T14:53:52;13.82;;;5.68;;
49852;SDS011;35751;48.072;11.688;2022-10-31T14:58:56;7.65;;;4.18;;
49852;SDS011;35751;48.072;11.688;2022-10-31T15:03:51;8.30;;;4.68;;
49852;SDS011;35751;48.072;11.688;2022-10-31T15:06:19;8.05;;;4.13;;
49852;SDS011;35751;48.072;11.688;2022-10-31T15:08:48;10.80;;;4.80;;
49852;SDS011;35751;48.072;11.688;2022-10-31T15:11:21;10.20;;;4.57;;
49852;SDS011;35751;48.072;11.688;2022-10-31T15:16:24;14.23;;;5.60;;
49852;SDS011;35751;48.072;11.688;2022-10-31T15:19:03;9.30;;;5.28;;
49852;SDS011;35751;48.072;11.688;2022-10-31T15:21:33;17.67;;;7.75;;
49852;SDS011;35751;48.072;11.688;2022-10-31T15:24:09;10.43;;;4.88;;
49852;SDS011;35751;48.072;11.688;2022-10-31T15:26:38;8.40;;;4.55;;
49852;SDS011;35751;48.072;11.688;2022-10-31T15:29:26;15.00;;;5.82;;
49852;SDS011;35751;48.072;11.688;2022-10-31T15:31:59;12.75;;;4.93;;
49852;SDS011;35751;48.072;11.688;2022-10-31T15:34:55;13.60;;;4.68;;
49852;SDS011;35751;48.072;11.688;2022-10-31T15:37:22;14.27;;;5.93;;
49852;SDS011;35751;48.072;11.688;2022-10-31T15:39:50;12.98;;;6.03;;
49852;SDS011;35751;48.072;11.688;2022-10-31T15:42:39;12.45;;;6.20;;
49852;SDS011;35751;48.072;11.688;2022-10-31T15:45:15;8.70;;;5.45;;
49852;SDS011;35751;48.072;11.688;2022-10-31T15:48:02;11.25;;;5.25;;
49852;SDS011;35751;48.072;11.688;2022-10-31T15:50:45;14.77;;;5.72;;
49852;SDS011;35751;48.072;11.688;2022-10-31T15:53:35;13.63;;;5.53;;
49852;SDS011;35751;48.072;11.688;2022-10-31T15:56:03;11.60;;;5.55;;
49852;SDS011;35751;48.072;11.688;2022-10-31T15:58:39;11.73;;;4.97;;
49852;SDS011;35751;48.072;11.688;2022-10-31T16:01:20;14.90;;;4.93;;
49852;SDS011;35751;48.072;11.688;2022-10-31T16:04:04;13.25;;;4.95;;
49852;SDS011;35751;48.072;11.688;2022-10-31T16:12:21;10.20;;;4.93;;
49852;SDS011;35751;48.072;11.688;2022-10-31T16:14:48;8.82;;;4.72;;
49852;SDS011;35751;48.072;11.688;2022-10-31T16:17:15;15.43;;;6.72;;
49852;SDS011;35751;48.072;11.688;2022-10-31T16:19:46;8.70;;;5.00;;
49852;SDS011;35751;48.072;11.688;2022-10-31T16:22:37;13.90;;;5.85;;
49852;SDS011;35751;48.072;11.688;2022-10-31T16:25:08;9.77;;;4.75;;
49852;SDS011;35751;48.072;11.688;2022-10-31T16:27:35;13.82;;;6.20;;
49852;SDS011;35751;48.072;11.688;2022-10-31T16:30:03;10.88;;;4.78;;
49852;SDS011;35751;48.072;11.688;2022-10-31T16:32:54;10.35;;;5.03;;
49852;SDS011;35751;48.072;11.688;2022-10-31T16:35:25;9.68;;;4.93;;
49852;SDS011;35751;48.072;11.688;2022-10-31T16:37:51;11.70;;;6.53;;
49852;SDS011;35751;48.072;11.688;2022-10-31T16:40:17;11.73;;;6.00;;
49852;SDS011;35751;48.072;11.688;2022-10-31T16:42:43;13.05;;;5.32;;
49852;SDS011;35751;48.072;11.688;2022-10-31T16:45:17;9.40;;;4.80;;
49852;SDS011;35751;48.072;11.688;2022-10-31T16:47:44;12.15;;;5.63;;
49852;SDS011;35751;48.072;11.688;2022-10-31T16:50:14;8.25;;;5.28;;
49852;SDS011;35751;48.072;11.688;2022-10-31T16:52:41;15.82;;;5.45;;
49852;SDS011;35751;48.072;11.688;2022-10-31T16:55:10;8.13;;;4.75;;
49852;SDS011;35751;48.072;11.688;2022-10-31T16:57:36;13.23;;;6.43;;
49852;SDS011;35751;48.072;11.688;2022-10-31T17:00:02;15.88;;;6.47;;
49852;SDS011;35751;48.072;11.688;2022-10-31T17:02:28;11.60;;;5.65;;
49852;SDS011;35751;48.072;11.688;2022-10-31T17:04:56;25.52;;;17.83;;
49852;SDS011;35751;48.072;11.688;2022-10-31T17:07:22;19.45;;;13.85;;